Wind EuroAirport

Messzeit Windrichtung Windgeschwindigkeit [Knoten] Rückenwind Nordpiste [Knoten] METAR
2020-08-14 06:30 S 170° 4 - LFSB 140430Z AUTO 17004KT 9999 -RA ///TCU 19/17 Q1016 TEMPO 4000 SHRA FEW030CB BKN035
2020-08-14 06:00 - 3 - LFSB 140400Z AUTO VRB03KT 9999 -RA ///TCU 19/16 Q1016 TEMPO 4000 SHRA FEW040 FEW050CB BKN060
2020-08-14 05:30 - 0 - LFSB 140330Z AUTO 00000KT 9999 ///TCU 19/17 Q1016 TEMPO 4000 SHRA FEW040 FEW050CB BKN060
2020-08-14 05:00 - 3 - LFSB 140300Z AUTO VRB03KT CAVOK 19/16 Q1016 TEMPO 4000 SHRA FEW040 FEW050CB BKN060
2020-08-14 04:30 S 180° 3 - LFSB 140230Z AUTO 18003KT CAVOK 19/16 Q1016 TEMPO 4000 SHRA FEW040 FEW050CB BKN060
2020-08-14 04:00 S 170° 3 - LFSB 140200Z AUTO 17003KT CAVOK 20/15 Q1016 TEMPO 4000 SHRA FEW040 FEW050CB BKN060
2020-08-14 03:30 - 3 - LFSB 140130Z AUTO VRB03KT CAVOK 19/15 Q1016 TEMPO 4000 SHRA FEW040 FEW050CB BKN060
2020-08-14 03:00 S 160° 3 - LFSB 140100Z AUTO 16003KT CAVOK 18/15 Q1016 TEMPO 4000 SHRA FEW040 FEW050CB BKN060
2020-08-14 02:30 - 2 - LFSB 140030Z AUTO VRB02KT CAVOK 19/15 Q1015 TEMPO 4000 SHRA FEW040 FEW050CB BKN060
2020-08-14 02:00 - 2 - LFSB 140000Z AUTO VRB02KT CAVOK 18/15 Q1015 TEMPO 4000 SHRA FEW040 FEW050CB BKN060
2020-08-14 01:30 W 260° 4 1 LFSB 132330Z AUTO 26004KT CAVOK 18/15 Q1016 TEMPO 4000 SHRA FEW040 FEW050CB BKN060
2020-08-14 01:00 W 280° 3 2 LFSB 132300Z AUTO 28003KT CAVOK 20/15 Q1015 TEMPO 4000 SHRA SCT050TCU
2020-08-14 00:30 W 250° 2 - LFSB 132230Z AUTO 25002KT CAVOK 20/15 Q1016 TEMPO 4000 SHRA SCT050TCU
2020-08-14 00:00 SW 240° 2 - LFSB 132200Z AUTO 24002KT CAVOK 21/15 Q1015 NOSIG
2020-08-13 23:30 S 180°
(140°–210°)
3 - LFSB 132130Z AUTO 18003KT 140V210 CAVOK 21/15 Q1016 NOSIG
2020-08-13 23:00 SW 220° 5 - LFSB 132100Z AUTO 22005KT CAVOK 21/16 Q1016 NOSIG
2020-08-13 22:30 W 250° 4 - LFSB 132030Z AUTO 25004KT CAVOK 21/16 Q1015 NOSIG
2020-08-13 22:00 S 200° 3 - LFSB 132000Z AUTO 20003KT CAVOK 22/16 Q1015 NOSIG
2020-08-13 21:30 - 2 - LFSB 131930Z AUTO VRB02KT CAVOK 22/16 Q1015 NOSIG
2020-08-13 21:00 W 260° 3 1 LFSB 131900Z AUTO 26003KT CAVOK 22/15 Q1015 TEMPO SCT070CB BKN120
2020-08-13 20:30 W 250°
(220°–280°)
6 0–3 LFSB 131830Z AUTO 25006KT 220V280 CAVOK 23/15 Q1015 TEMPO SCT070CB BKN120
2020-08-13 20:00 SO 120°
(100°–160°)
7 - LFSB 131800Z AUTO 12007KT 100V160 9999 FEW052 OVC110 25/13 Q1014 TEMPO VRB20G35KT 2000 TSRA BECMG SCT070CB BKN120
2020-08-13 19:30 SW 220°
(180°–280°)
11 0–6 LFSB 131730Z AUTO 22011KT 180V280 9999 ///TCU 25/13 Q1015 TEMPO 2000 TSRA BECMG 11006KT SCT070CB BKN120
2020-08-13 19:00 O 110° 12 - LFSB 131700Z 11012KT 9999 VCSH SCT080CB BKN140 28/14 Q1014 TEMPO VRB20G35KT 2000 TSRA SCT070CB
2020-08-13 18:30 O 100°
(70°–130°)
11 - LFSB 131630Z 10011KT 070V130 9999 VCSH FEW080CB BKN140 28/15 Q1015 TEMPO VRB20G35KT 2000 TSRA SCT070CB
2020-08-13 18:00 O 100°
(60°–130°)
11 0–2 LFSB 131600Z 10011KT 060V130 9999 FEW080CB SCT130 30/15 Q1014 TEMPO VRB20G35KT 2000 TSRA SCT070CB
2020-08-13 17:30 O 110°
(80°–140°)
11 - LFSB 131530Z 11011KT 080V140 9999 FEW080CB SCT130 BKN260 30/15 Q1014 TEMPO VRB20G35KT 2000 TSRA SCT070CB
2020-08-13 17:00 O 110° 10 - LFSB 131500Z 11010KT 9999 FEW080CB BKN260 31/12 Q1014 TEMPO VRB20G35KT 2000 TSRA SCT070CB
2020-08-13 16:30 O 80° 10 - LFSB 131430Z 08010KT CAVOK 30/14 Q1014 BECMG SCT070CB
2020-08-13 16:00 O 90° 9 - LFSB 131400Z 09009KT 9999 FEW073TCU BKN150 BKN250 30/14 Q1015 BECMG SCT070CB
2020-08-13 15:30 O 100° 10 - LFSB 131330Z 10010KT 9999 FEW073TCU SCT100 30/15 Q1015 NOSIG
2020-08-13 15:00 SO 120°
(10°–180°)
6 0–5 LFSB 131300Z 12006KT 010V180 9999 FEW060TCU SCT120 31/13 Q1015 NOSIG
2020-08-13 14:30 O 110°
(70°–200°)
4 - LFSB 131230Z 11004KT 070V200 9999 FEW060TCU SCT110 BKN120 30/15 Q1015 NOSIG
2020-08-13 14:00 O 80°
(50°–110°)
4 0–1 LFSB 131200Z 08004KT 050V110 9999 FEW060TCU BKN110 BKN140 28/15 Q1015 NOSIG
2020-08-13 13:30 O 90°
(50°–110°)
7 0–2 LFSB 131130Z 09007KT 050V110 9999 FEW050TCU BKN100 BKN150 29/15 Q1015 NOSIG
2020-08-13 13:00 O 90°
(30°–140°)
3 0–2 LFSB 131100Z 09003KT 030V140 9999 FEW040 BKN093 BKN150 28/14 Q1016 NOSIG
2020-08-13 12:30 - 3 - LFSB 131030Z VRB03KT 9999 FEW046 BKN090 28/14 Q1016 NOSIG
2020-08-13 12:00 O 100°
(70°–170°)
3 - LFSB 131000Z 10003KT 070V170 CAVOK 27/15 Q1016 NOSIG
2020-08-13 11:30 O 90°
(350°–140°)
4 0–4 LFSB 130930Z 09004KT 350V140 CAVOK 28/17 Q1016 NOSIG
2020-08-13 11:00 - 2 - LFSB 130900Z VRB02KT CAVOK 27/15 Q1016 NOSIG
2020-08-13 10:30 - 3 - LFSB 130830Z VRB03KT CAVOK 25/15 Q1016 NOSIG
2020-08-13 10:00 - 3 - LFSB 130800Z VRB03KT CAVOK 25/15 Q1015 NOSIG
2020-08-13 09:30 - 2 - LFSB 130730Z VRB02KT CAVOK 24/15 Q1015 NOSIG
2020-08-13 09:00 - 2 - LFSB 130700Z VRB02KT CAVOK 23/17 Q1015 NOSIG
2020-08-13 08:30 S 160°
(140°–210°)
3 - LFSB 130630Z 16003KT 140V210 CAVOK 23/18 Q1015 NOSIG
2020-08-13 08:00 S 170°
(120°–220°)
4 - LFSB 130600Z 17004KT 120V220 CAVOK 22/17 Q1015 NOSIG
2020-08-13 07:30 - 2 - LFSB 130530Z VRB02KT CAVOK 21/17 Q1015 NOSIG